Dades meteomassalio
Diari Summary for Noviembre 19, 2017 Units:  Metric    English   Both
« Previous Day
Next Day »
Diari Semanal Mensual Anual Personalitzat
  Maxima: Minima: Mijana:
Temperatura: 16.1 °C -2.2 °C 3.4 °C
Rosada: 3.2 °C -8.1 °C -2.8 °C
Humitat: 91 % 31 % 68 %
Velocitat del vent: 20.4 km/h 0.0 km/h 2.8 km/h
Racha vent: 20.4 km/h - -
Vent:- - West
Pressio: 1027.3 hPa 1024.3 hPa -
Pluja: 0.0 mm    
Historical Graphs
 
 
Tabular Data for Noviembre 19, 2017
Time Temperature Dew Point Pressure Wind Wind Speed Wind Gust Humidity Rainfall Rate (Hourly) solar Conditions
00:00 0.6 °C -1.7 °C 1026.0 hPa Calm     85 % 0.0 mm 0.0 W/m2 CLR
00:05 0.6 °C -2.0 °C 1026.0 hPa Calm     83 % 0.0 mm 0.0 W/m2 CLR
00:10 0.6 °C -2.0 °C 1026.0 hPa Calm     83 % 0.0 mm 0.0 W/m2 CLR
00:15 0.6 °C -1.7 °C 1026.0 hPa Calm     85 % 0.0 mm 0.0 W/m2 CLR
00:20 0.6 °C -1.7 °C 1026.0 hPa Calm     85 % 0.0 mm 0.0 W/m2 CLR
00:25 0.6 °C -1.7 °C 1026.0 hPa Calm     85 % 0.0 mm 0.0 W/m2 CLR
00:30 0.6 °C -1.7 °C 1026.0 hPa Calm     85 % 0.0 mm 0.0 W/m2 CLR
00:35 0.0 °C -2.4 °C 1026.0 hPa Calm     84 % 0.0 mm 0.0 W/m2 CLR
00:40 0.0 °C -2.4 °C 1026.0 hPa Calm     84 % 0.0 mm 0.0 W/m2 CLR
00:45 0.0 °C -2.2 °C 1025.6 hPa Calm     85 % 0.0 mm 0.0 W/m2 CLR
00:50 -0.6 °C -2.8 °C 1025.6 hPa Calm     85 % 0.0 mm 0.0 W/m2 CLR
00:55 -0.6 °C -2.8 °C 1025.6 hPa Calm     85 % 0.0 mm 0.0 W/m2 CLR
01:00 -0.6 °C -2.6 °C 1025.6 hPa Calm     86 % 0.0 mm 0.0 W/m2 CLR
01:05 -0.6 °C -2.6 °C 1025.6 hPa Calm     86 % 0.0 mm 0.0 W/m2 CLR
01:10 -0.6 °C -2.4 °C 1025.6 hPa Calm     87 % 0.0 mm 0.0 W/m2 CLR
01:15 -0.6 °C -2.6 °C 1025.6 hPa Calm     86 % 0.0 mm 0.0 W/m2 CLR
01:20 -0.6 °C -2.8 °C 1025.6 hPa Calm     85 % 0.0 mm 0.0 W/m2 CLR
01:25 0.0 °C -2.1 °C 1025.6 hPa Calm     86 % 0.0 mm 0.0 W/m2 CLR
01:30 0.0 °C -2.1 °C 1025.3 hPa Calm     86 % 0.0 mm 0.0 W/m2 CLR
01:35 0.0 °C -2.1 °C 1025.3 hPa Calm     86 % 0.0 mm 0.0 W/m2 CLR
01:40 -0.6 °C -2.4 °C 1025.3 hPa Calm     87 % 0.0 mm 0.0 W/m2 CLR
01:45 -0.6 °C -2.6 °C 1025.3 hPa Calm     86 % 0.0 mm 0.0 W/m2 CLR
01:50 -0.6 °C -2.6 °C 1025.3 hPa Calm     86 % 0.0 mm 0.0 W/m2 CLR
01:55 -0.6 °C -2.6 °C 1025.3 hPa Calm     86 % 0.0 mm 0.0 W/m2 CLR
02:00 -1.1 °C -3.2 °C 1025.3 hPa Calm     86 % 0.0 mm 0.0 W/m2 CLR
02:05 -1.1 °C -3.2 °C 1025.3 hPa Calm     86 % 0.0 mm 0.0 W/m2 CLR
02:10 -1.1 °C -3.2 °C 1025.3 hPa Calm     86 % 0.0 mm 0.0 W/m2 CLR
02:15 -1.1 °C -3.2 °C 1025.3 hPa Calm     86 % 0.0 mm 0.0 W/m2 CLR
02:20 -1.1 °C -3.2 °C 1025.3 hPa Calm     86 % 0.0 mm 0.0 W/m2 CLR
02:25 -1.1 °C -3.0 °C 1025.3 hPa Calm     87 % 0.0 mm 0.0 W/m2 CLR
02:30 -1.1 °C -3.0 °C 1025.3 hPa Calm     87 % 0.0 mm 0.0 W/m2 CLR
02:35 -1.1 °C -3.0 °C 1025.3 hPa Calm     87 % 0.0 mm 0.0 W/m2 CLR
02:40 -1.1 °C -3.0 °C 1025.3 hPa Calm     87 % 0.0 mm 0.0 W/m2 CLR
02:45 -1.1 °C -3.0 °C 1025.6 hPa Calm     87 % 0.0 mm 0.0 W/m2 CLR
02:50 -1.1 °C -3.0 °C 1025.6 hPa Calm     87 % 0.0 mm 0.0 W/m2 CLR
02:55 -1.1 °C -3.0 °C 1025.6 hPa Calm     87 % 0.0 mm 0.0 W/m2 CLR
03:00 -1.1 °C -3.0 °C 1025.6 hPa Calm     87 % 0.0 mm 0.0 W/m2 CLR
03:05 -1.1 °C -3.0 °C 1025.6 hPa Calm     87 % 0.0 mm 0.0 W/m2 CLR
03:10 -1.1 °C -3.2 °C 1026.0 hPa Calm     86 % 0.0 mm 0.0 W/m2 CLR
03:15 -1.1 °C -3.2 °C 1025.6 hPa Calm     86 % 0.0 mm 0.0 W/m2 CLR
03:20 -1.1 °C -3.0 °C 1026.0 hPa Calm     87 % 0.0 mm 0.0 W/m2 CLR
03:25 -1.1 °C -2.8 °C 1025.6 hPa Calm     88 % 0.0 mm 0.0 W/m2 CLR
03:30 -1.1 °C -2.8 °C 1026.0 hPa Calm     88 % 0.0 mm 0.0 W/m2 CLR
03:35 -1.1 °C -2.8 °C 1025.6 hPa Calm     88 % 0.0 mm 0.0 W/m2 CLR
03:40 -1.1 °C -2.8 °C 1025.6 hPa Calm     88 % 0.0 mm 0.0 W/m2 CLR
03:45 -1.1 °C -2.8 °C 1025.6 hPa Calm     88 % 0.0 mm 0.0 W/m2 CLR
03:50 -1.1 °C -2.8 °C 1025.6 hPa Calm     88 % 0.0 mm 0.0 W/m2 CLR
03:55 -1.1 °C -2.8 °C 1025.6 hPa Calm     88 % 0.0 mm 0.0 W/m2 CLR
04:00 -1.1 °C -2.8 °C 1025.6 hPa Calm     88 % 0.0 mm 0.0 W/m2 CLR
04:05 -1.1 °C -2.8 °C 1025.6 hPa Calm     88 % 0.0 mm 0.0 W/m2 CLR
04:10 -1.7 °C -3.4 °C 1025.6 hPa Calm     88 % 0.0 mm 0.0 W/m2 CLR
04:17 -1.7 °C -3.4 °C 1025.6 hPa Calm     88 % 0.0 mm 0.0 W/m2 CLR
04:22 -1.7 °C -3.2 °C 1025.6 hPa Calm     89 % 0.0 mm 0.0 W/m2 CLR
04:23 -1.7 °C -3.2 °C 1025.6 hPa Calm     89 % 0.0 mm 0.0 W/m2 CLR
04:25 -1.7 °C -3.2 °C 1025.6 hPa Calm     89 % 0.0 mm 0.0 W/m2 CLR
04:27 -1.7 °C -3.2 °C 1025.6 hPa Calm     89 % 0.0 mm 0.0 W/m2 CLR
04:29 -1.7 °C -3.2 °C 1025.6 hPa Calm     89 % 0.0 mm 0.0 W/m2 CLR
04:34 -2.2 °C -3.8 °C 1025.6 hPa Calm     89 % 0.0 mm 0.0 W/m2 CLR
04:39 -2.2 °C -3.8 °C 1025.6 hPa Calm     89 % 0.0 mm 0.0 W/m2 CLR
04:44 -1.7 °C -3.2 °C 1025.6 hPa Calm     89 % 0.0 mm 0.0 W/m2 CLR
04:49 -1.7 °C -3.1 °C 1025.6 hPa Calm     90 % 0.0 mm 0.0 W/m2 CLR
04:54 -1.7 °C -3.2 °C 1025.6 hPa Calm     89 % 0.0 mm 0.0 W/m2 CLR
04:59 -2.2 °C -3.8 °C 1025.6 hPa Calm     89 % 0.0 mm 0.0 W/m2 CLR
05:04 -2.2 °C -3.8 °C 1025.6 hPa Calm     89 % 0.0 mm 0.0 W/m2 CLR
05:09 -2.2 °C -3.8 °C 1025.6 hPa Calm     89 % 0.0 mm 0.0 W/m2 CLR
05:14 -2.2 °C -3.8 °C 1025.6 hPa Calm     89 % 0.0 mm 0.0 W/m2 CLR
05:19 -1.7 °C -3.1 °C 1025.6 hPa Calm     90 % 0.0 mm 0.0 W/m2 CLR
05:24 -1.7 °C -3.1 °C 1025.6 hPa Calm     90 % 0.0 mm 0.0 W/m2 CLR
05:34 -1.1 °C -2.7 °C 1025.6 hPa Calm     89 % 0.0 mm 0.0 W/m2 CLR
05:44 -1.1 °C -2.7 °C 1025.6 hPa Calm     89 % 0.0 mm 0.0 W/m2 CLR
05:49 -1.1 °C -2.6 °C 1025.6 hPa Calm     90 % 0.0 mm 0.0 W/m2 CLR
05:54 -1.1 °C -2.6 °C 1025.6 hPa Calm     90 % 0.0 mm 0.0 W/m2 CLR
06:04 -1.7 °C -3.2 °C 1025.6 hPa Calm     89 % 0.0 mm 0.0 W/m2 CLR
06:09 -1.7 °C -3.2 °C 1025.6 hPa Calm     89 % 0.0 mm 0.0 W/m2 CLR
06:19 -1.7 °C -3.2 °C 1025.6 hPa Calm     89 % 0.0 mm 0.0 W/m2 CLR
06:24 -1.7 °C -3.1 °C 1025.6 hPa Calm     90 % 0.0 mm 0.0 W/m2 CLR
06:29 -1.7 °C -3.1 °C 1025.3 hPa Calm     90 % 0.0 mm 0.0 W/m2 CLR
06:34 -1.7 °C -3.1 °C 1025.3 hPa Calm     90 % 0.0 mm 0.0 W/m2 CLR
06:39 -1.7 °C -3.1 °C 1025.3 hPa Calm     90 % 0.0 mm 0.0 W/m2 CLR
06:44 -1.7 °C -3.1 °C 1025.3 hPa Calm     90 % 0.0 mm 0.0 W/m2 CLR
06:49 -1.7 °C -3.1 °C 1025.3 hPa Calm     90 % 0.0 mm 0.0 W/m2 CLR
06:54 -1.7 °C -3.1 °C 1025.3 hPa Calm     90 % 0.0 mm 0.0 W/m2 CLR
06:59 -1.7 °C -3.1 °C 1025.3 hPa Calm     90 % 0.0 mm 0.0 W/m2 CLR
07:04 -1.7 °C -3.1 °C 1025.3 hPa Calm     90 % 0.0 mm 0.0 W/m2 CLR
07:09 -1.7 °C -3.1 °C 1025.3 hPa Calm     90 % 0.0 mm 0.0 W/m2 CLR
07:14 -1.7 °C -3.1 °C 1025.3 hPa Calm     90 % 0.0 mm 0.0 W/m2 CLR
07:19 -1.7 °C -3.1 °C 1025.6 hPa Calm     90 % 0.0 mm 0.0 W/m2 CLR
07:29 -1.7 °C -3.1 °C 1025.6 hPa Calm     90 % 0.0 mm 0.0 W/m2 CLR
07:34 -2.2 °C -3.7 °C 1025.6 hPa Calm     90 % 0.0 mm 0.0 W/m2 CLR
07:39 -1.7 °C -3.1 °C 1025.6 hPa Calm     90 % 0.0 mm 0.0 W/m2 CLR
07:50 -1.7 °C -3.2 °C 1026.0 hPa Calm     89 % 0.0 mm 5.0 W/m2 OVC
07:55 -1.7 °C -3.1 °C 1026.0 hPa Calm     90 % 0.0 mm 7.0 W/m2 OVC
08:00 -1.7 °C -3.1 °C 1026.0 hPa Calm     90 % 0.0 mm 11.0 W/m2 OVC
08:05 -1.7 °C -3.1 °C 1026.0 hPa Calm     90 % 0.0 mm 12.0 W/m2 OVC
08:10 -1.7 °C -2.9 °C 1026.0 hPa Calm     91 % 0.0 mm 16.0 W/m2 OVC
08:15 -1.7 °C -2.9 °C 1026.3 hPa Calm     91 % 0.0 mm 18.0 W/m2 OVC
08:20 -1.7 °C -2.9 °C 1026.3 hPa Calm     91 % 0.0 mm 23.0 W/m2 OVC
08:25 -1.7 °C -3.1 °C 1026.3 hPa Calm     90 % 0.0 mm 30.0 W/m2 OVC
08:30 -1.7 °C -3.1 °C 1026.3 hPa Calm     90 % 0.0 mm 35.0 W/m2 OVC
08:35 -1.7 °C -3.1 °C 1026.3 hPa Calm     90 % 0.0 mm 39.0 W/m2 OVC
08:46 -1.1 °C -2.6 °C 1026.6 hPa Calm     90 % 0.0 mm 47.0 W/m2 OVC
08:51 -1.1 °C -2.7 °C 1026.6 hPa Calm     89 % 0.0 mm 60.0 W/m2 OVC
08:56 -1.1 °C -2.7 °C 1026.6 hPa Calm     89 % 0.0 mm 76.0 W/m2 BKN
09:01 -0.6 °C -2.2 °C 1026.6 hPa Calm     89 % 0.0 mm 74.0 W/m2 SCT
09:16 0.0 °C -1.8 °C 1026.6 hPa Calm     88 % 0.0 mm 142.0 W/m2 CLR
09:21 0.0 °C -1.9 °C 1026.6 hPa Calm     87 % 0.0 mm 162.0 W/m2 CLR
09:31 0.6 °C -1.7 °C 1027.0 hPa Calm     85 % 0.0 mm 162.0 W/m2 CLR
09:36 0.6 °C -1.7 °C 1027.0 hPa Calm     85 % 0.0 mm 220.0 W/m2 CLR
09:41 1.1 °C -1.3 °C 1027.0 hPa Calm     84 % 0.0 mm 232.0 W/m2 CLR
09:46 1.7 °C -1.1 °C 1026.6 hPa Calm     82 % 0.0 mm 250.0 W/m2 CLR
09:51 1.7 °C -1.4 °C 1026.6 hPa Calm     80 % 0.0 mm 264.0 W/m2 CLR
10:01 2.8 °C -0.7 °C 1026.6 hPa Calm     78 % 0.0 mm 287.0 W/m2 CLR
10:11 3.3 °C -0.5 °C 1027.0 hPa Calm     76 % 0.0 mm 306.0 W/m2 CLR
10:16 3.9 °C -0.2 °C 1027.0 hPa Calm     75 % 0.0 mm 318.0 W/m2 CLR
10:26 5.0 °C 0.4 °C 1027.0 hPa Calm     72 % 0.0 mm 341.0 W/m2 CLR
10:31 5.6 °C 0.7 °C 1027.0 hPa Calm     71 % 0.0 mm 350.0 W/m2 CLR
10:36 6.1 °C 0.7 °C 1026.6 hPa Calm     68 % 0.0 mm 364.0 W/m2 CLR
10:42 6.7 °C 0.8 °C 1027.0 hPa North 13.0 km/h 13.0 km/h 66 % 0.0 mm 373.0 W/m2 CLR
10:47 7.8 °C 0.7 °C 1027.0 hPa NW 18.5 km/h 18.5 km/h 61 % 0.0 mm 381.0 W/m2 CLR
11:02 10.6 °C 2.6 °C 1027.0 hPa NW 14.8 km/h 14.8 km/h 58 % 0.0 mm 404.0 W/m2 CLR
11:07 10.6 °C 2.4 °C 1027.0 hPa NW 14.8 km/h 14.8 km/h 57 % 0.0 mm 413.0 W/m2 CLR
11:08 10.6 °C 2.4 °C 1027.0 hPa WNW 14.8 km/h 14.8 km/h 57 % 0.0 mm 413.0 W/m2 CLR
11:13 11.1 °C 2.9 °C 1027.0 hPa NW 16.7 km/h 16.7 km/h 57 % 0.0 mm 420.0 W/m2 CLR
11:23 11.7 °C 3.2 °C 1027.0 hPa NW 5.6 km/h 5.6 km/h 56 % 0.0 mm 434.0 W/m2 CLR
11:28 11.7 °C 3.2 °C 1027.0 hPa NW 7.4 km/h 7.4 km/h 56 % 0.0 mm 439.0 W/m2 CLR
11:33 11.7 °C 2.7 °C 1027.0 hPa North 11.1 km/h 11.1 km/h 54 % 0.0 mm 448.0 W/m2 CLR
11:48 12.2 °C 2.4 °C 1026.6 hPa NW 16.7 km/h 16.7 km/h 51 % 0.0 mm 462.0 W/m2 CLR
11:53 12.2 °C 2.4 °C 1026.6 hPa NW 20.4 km/h 20.4 km/h 51 % 0.0 mm 468.0 W/m2 CLR
12:03 12.8 °C 2.1 °C 1026.6 hPa NNW 20.4 km/h 20.4 km/h 48 % 0.0 mm 475.0 W/m2 CLR
12:08 12.8 °C 2.1 °C 1026.3 hPa NW 13.0 km/h 13.0 km/h 48 % 0.0 mm 478.0 W/m2 CLR
12:13 12.8 °C 1.7 °C 1026.3 hPa NW 18.5 km/h 18.5 km/h 47 % 0.0 mm 482.0 W/m2 CLR
12:23 12.8 °C 1.4 °C 1026.3 hPa NNE 16.7 km/h 16.7 km/h 46 % 0.0 mm 487.0 W/m2 CLR
12:28 13.3 °C 1.6 °C 1026.3 hPa North 18.5 km/h 18.5 km/h 45 % 0.0 mm 487.0 W/m2 CLR
12:38 13.3 °C 0.7 °C 1026.0 hPa NNW 16.7 km/h 16.7 km/h 42 % 0.0 mm 489.0 W/m2 CLR
12:48 13.3 °C 1.0 °C 1026.0 hPa NNW 18.5 km/h 18.5 km/h 43 % 0.0 mm 490.0 W/m2 CLR
12:53 13.3 °C 0.7 °C 1026.0 hPa NNW 16.7 km/h 16.7 km/h 42 % 0.0 mm 490.0 W/m2 CLR
12:58 13.9 °C 1.2 °C 1026.0 hPa North 16.7 km/h 16.7 km/h 42 % 0.0 mm 490.0 W/m2 CLR
13:03 13.9 °C 1.2 °C 1026.0 hPa NW 11.1 km/h 11.1 km/h 42 % 0.0 mm 487.0 W/m2 CLR
13:08 13.9 °C 0.8 °C 1026.0 hPa NE 18.5 km/h 18.5 km/h 41 % 0.0 mm 487.0 W/m2 CLR
13:13 14.4 °C 1.3 °C 1025.6 hPa North 19.3 km/h 19.3 km/h 41 % 0.0 mm 485.0 W/m2 CLR
13:18 14.4 °C 1.7 °C 1025.6 hPa North 16.1 km/h 16.1 km/h 42 % 0.0 mm 483.0 W/m2 CLR
13:23 14.4 °C 1.3 °C 1025.6 hPa NW 9.3 km/h 9.3 km/h 41 % 0.0 mm 480.0 W/m2 CLR
13:33 14.4 °C 1.0 °C 1025.3 hPa NNW 19.3 km/h 19.3 km/h 40 % 0.0 mm 473.0 W/m2 CLR
13:38 15.0 °C 1.5 °C 1025.3 hPa NW 18.5 km/h 18.5 km/h 40 % 0.0 mm 471.0 W/m2 CLR
13:43 15.0 °C 1.5 °C 1025.3 hPa NNW 16.7 km/h 16.7 km/h 40 % 0.0 mm 466.0 W/m2 CLR
13:48 15.0 °C 1.2 °C 1025.3 hPa NNW 20.4 km/h 20.4 km/h 39 % 0.0 mm 461.0 W/m2 CLR
13:53 15.0 °C 0.4 °C 1025.3 hPa North 18.5 km/h 18.5 km/h 37 % 0.0 mm 455.0 W/m2 CLR
14:03 15.0 °C 0.1 °C 1024.9 hPa NW 18.5 km/h 18.5 km/h 36 % 0.0 mm 446.0 W/m2 CLR
14:08 15.0 °C 0.4 °C 1024.9 hPa Calm     37 % 0.0 mm 439.0 W/m2 CLR
14:13 15.0 °C 0.1 °C 1024.9 hPa NNW 14.5 km/h 14.5 km/h 36 % 0.0 mm 432.0 W/m2 CLR
14:18 15.0 °C 0.1 °C 1024.6 hPa NNW 16.7 km/h 16.7 km/h 36 % 0.0 mm 425.0 W/m2 CLR
14:23 15.6 °C 0.9 °C 1024.6 hPa North 14.8 km/h 14.8 km/h 37 % 0.0 mm 418.0 W/m2 CLR
14:28 15.6 °C 0.9 °C 1024.6 hPa North 18.5 km/h 18.5 km/h 37 % 0.0 mm 411.0 W/m2 CLR
14:38 15.6 °C 1.3 °C 1024.6 hPa NNE 16.1 km/h 16.1 km/h 38 % 0.0 mm 396.0 W/m2 CLR
14:43 16.1 °C 1.8 °C 1024.6 hPa North 14.8 km/h 14.8 km/h 38 % 0.0 mm 387.0 W/m2 CLR
14:48 15.6 °C 1.7 °C 1024.6 hPa Calm     39 % 0.0 mm 378.0 W/m2 CLR
14:53 15.6 °C 1.3 °C 1024.6 hPa North 14.5 km/h 14.5 km/h 38 % 0.0 mm 371.0 W/m2 CLR
14:58 15.6 °C 0.9 °C 1024.6 hPa Calm     37 % 0.0 mm 362.0 W/m2 CLR
15:03 15.6 °C 0.9 °C 1024.6 hPa Calm     37 % 0.0 mm 352.0 W/m2 CLR
15:08 15.6 °C 0.1 °C 1024.6 hPa NW 11.3 km/h 11.3 km/h 35 % 0.0 mm 345.0 W/m2 CLR
15:13 15.6 °C -0.3 °C 1024.6 hPa NNW 3.7 km/h 3.7 km/h 34 % 0.0 mm 325.0 W/m2 CLR
15:18 16.1 °C -0.6 °C 1024.6 hPa NW 16.7 km/h 16.7 km/h 32 % 0.0 mm 304.0 W/m2 CLR
15:23 16.1 °C -0.2 °C 1024.6 hPa NNW 16.7 km/h 16.7 km/h 33 % 0.0 mm 308.0 W/m2 CLR
15:28 15.6 °C -1.1 °C 1024.6 hPa WNW 13.0 km/h 13.0 km/h 32 % 0.0 mm 299.0 W/m2 CLR
15:38 16.1 °C -0.6 °C 1024.3 hPa NNW 11.1 km/h 11.1 km/h 32 % 0.0 mm 279.0 W/m2 CLR
15:43 16.1 °C -0.2 °C 1024.6 hPa North 1.9 km/h   33 % 0.0 mm 262.0 W/m2 CLR
15:53 16.1 °C -1.1 °C 1024.3 hPa NW 1.9 km/h   31 % 0.0 mm 241.0 W/m2 CLR
16:13 14.4 °C -1.2 °C 1024.6 hPa Calm     34 % 0.0 mm 176.0 W/m2 CLR
16:23 13.9 °C -1.7 °C 1024.6 hPa Calm     34 % 0.0 mm 146.0 W/m2 CLR
16:24 13.9 °C -1.7 °C 1024.6 hPa Calm     34 % 0.0 mm 142.0 W/m2 CLR
16:29 13.3 °C -2.6 °C 1024.6 hPa Calm     33 % 0.0 mm 127.0 W/m2 CLR
16:39 12.8 °C -3.1 °C 1024.6 hPa Calm     33 % 0.0 mm 91.0 W/m2 CLR
16:49 11.7 °C -3.7 °C 1024.6 hPa Calm     34 % 0.0 mm 69.0 W/m2 FEW
16:54 10.6 °C -4.7 °C 1024.6 hPa Calm     34 % 0.0 mm 58.0 W/m2 SCT
16:59 10.0 °C -4.8 °C 1024.6 hPa Calm     35 % 0.0 mm 42.0 W/m2 BKN
17:04 9.4 °C -5.7 °C 1024.6 hPa Calm     34 % 0.0 mm 33.0 W/m2 BKN
17:14 8.3 °C -6.7 °C 1024.6 hPa Calm     34 % 0.0 mm 16.0 W/m2 BKN
17:19 8.3 °C -6.7 °C 1024.6 hPa Calm     34 % 0.0 mm 12.0 W/m2 BKN
17:24 7.8 °C -7.1 °C 1024.6 hPa Calm     34 % 0.0 mm 11.0 W/m2 BKN
17:29 7.2 °C -7.2 °C 1024.6 hPa Calm     35 % 0.0 mm 9.0 W/m2 BKN
17:34 7.2 °C -6.9 °C 1024.6 hPa Calm     36 % 0.0 mm 7.0 W/m2 BKN
17:39 6.7 °C -7.0 °C 1024.6 hPa Calm     37 % 0.0 mm 5.0 W/m2 OVC
17:44 7.2 °C -6.2 °C 1024.6 hPa Calm     38 % 0.0 mm 0.0 W/m2 OVC
17:54 7.2 °C -5.5 °C 1024.9 hPa Calm     40 % 0.0 mm 0.0 W/m2 CLR
18:04 7.8 °C -4.3 °C 1024.9 hPa Calm     42 % 0.0 mm 0.0 W/m2 CLR
18:09 7.2 °C -4.6 °C 1024.9 hPa Calm     43 % 0.0 mm 0.0 W/m2 CLR
18:29 5.6 °C -4.6 °C 1025.3 hPa Calm     48 % 0.0 mm 0.0 W/m2 CLR
18:34 5.0 °C -4.8 °C 1025.3 hPa Calm     49 % 0.0 mm 0.0 W/m2 CLR
18:39 5.0 °C -4.6 °C 1025.3 hPa Calm     50 % 0.0 mm 0.0 W/m2 CLR
18:44 4.4 °C -5.1 °C 1025.3 hPa Calm     50 % 0.0 mm 0.0 W/m2 CLR
18:49 3.9 °C -5.6 °C 1025.3 hPa Calm     50 % 0.0 mm 0.0 W/m2 CLR
18:54 3.9 °C -5.3 °C 1025.3 hPa Calm     51 % 0.0 mm 0.0 W/m2 CLR
18:59 3.3 °C -5.6 °C 1025.6 hPa Calm     52 % 0.0 mm 0.0 W/m2 CLR
19:04 3.3 °C -5.6 °C 1025.6 hPa Calm     52 % 0.0 mm 0.0 W/m2 CLR
19:09 2.8 °C -6.1 °C 1025.6 hPa Calm     52 % 0.0 mm 0.0 W/m2 CLR
19:14 2.8 °C -5.9 °C 1026.0 hPa Calm     53 % 0.0 mm 0.0 W/m2 CLR
19:19 2.2 °C -6.4 °C 1026.0 hPa Calm     53 % 0.0 mm 0.0 W/m2 CLR
19:34 1.1 °C -7.4 °C 1026.0 hPa Calm     53 % 0.0 mm 0.0 W/m2 CLR
19:39 1.1 °C -7.4 °C 1026.0 hPa Calm     53 % 0.0 mm 0.0 W/m2 CLR
19:49 0.6 °C -7.7 °C 1026.3 hPa Calm     54 % 0.0 mm 0.0 W/m2 CLR
19:54 0.6 °C -7.4 °C 1026.3 hPa Calm     55 % 0.0 mm 0.0 W/m2 CLR
19:59 0.6 °C -7.4 °C 1026.3 hPa Calm     55 % 0.0 mm 0.0 W/m2 CLR
20:04 0.0 °C -8.0 °C 1026.3 hPa Calm     55 % 0.0 mm 0.0 W/m2 CLR
20:09 0.0 °C -7.7 °C 1026.3 hPa Calm     56 % 0.0 mm 0.0 W/m2 CLR
20:14 0.0 °C -7.5 °C 1026.3 hPa Calm     57 % 0.0 mm 0.0 W/m2 CLR
20:25 -0.6 °C -8.1 °C 1026.3 hPa Calm     57 % 0.0 mm 0.0 W/m2 CLR
20:35 -0.6 °C -7.8 °C 1026.3 hPa Calm     58 % 0.0 mm 0.0 W/m2 CLR
20:40 -0.6 °C -7.8 °C 1026.3 hPa Calm     58 % 0.0 mm 0.0 W/m2 CLR
20:45 -0.6 °C -7.8 °C 1026.3 hPa Calm     58 % 0.0 mm 0.0 W/m2 CLR
20:55 -1.1 °C -8.1 °C 1026.6 hPa Calm     59 % 0.0 mm 0.0 W/m2 CLR
21:00 -0.6 °C -7.6 °C 1026.6 hPa Calm     59 % 0.0 mm 0.0 W/m2 CLR
21:05 -0.6 °C -7.6 °C 1026.6 hPa Calm     59 % 0.0 mm 0.0 W/m2 CLR
21:10 -0.6 °C -7.4 °C 1026.6 hPa Calm     60 % 0.0 mm 0.0 W/m2 CLR
21:15 0.0 °C -6.6 °C 1026.6 hPa Calm     61 % 0.0 mm 0.0 W/m2 CLR
21:20 0.0 °C -6.8 °C 1026.6 hPa Calm     60 % 0.0 mm 0.0 W/m2 CLR
21:25 0.6 °C -6.3 °C 1026.6 hPa Calm     60 % 0.0 mm 0.0 W/m2 CLR
21:30 0.6 °C -6.3 °C 1026.6 hPa Calm     60 % 0.0 mm 0.0 W/m2 CLR
21:40 0.0 °C -6.4 °C 1027.0 hPa Calm     62 % 0.0 mm 0.0 W/m2 CLR
21:45 0.0 °C -6.2 °C 1026.6 hPa Calm     63 % 0.0 mm 0.0 W/m2 CLR
22:00 -0.6 °C -6.6 °C 1026.6 hPa Calm     64 % 0.0 mm 0.0 W/m2 CLR
22:05 -0.6 °C -6.3 °C 1026.6 hPa Calm     65 % 0.0 mm 0.0 W/m2 CLR
22:10 -0.6 °C -6.3 °C 1027.0 hPa Calm     65 % 0.0 mm 0.0 W/m2 CLR
22:15 0.0 °C -5.8 °C 1027.0 hPa Calm     65 % 0.0 mm 0.0 W/m2 CLR
22:20 0.0 °C -5.8 °C 1027.0 hPa Calm     65 % 0.0 mm 0.0 W/m2 CLR
22:25 0.6 °C -5.3 °C 1027.0 hPa Calm     65 % 0.0 mm 0.0 W/m2 CLR
22:30 0.0 °C -5.6 °C 1027.0 hPa Calm     66 % 0.0 mm 0.0 W/m2 CLR
22:35 0.0 °C -5.6 °C 1027.0 hPa Calm     66 % 0.0 mm 0.0 W/m2 CLR
22:40 0.6 °C -4.9 °C 1027.0 hPa Calm     67 % 0.0 mm 0.0 W/m2 CLR
22:45 0.6 °C -5.1 °C 1027.0 hPa Calm     66 % 0.0 mm 0.0 W/m2 CLR
22:50 0.6 °C -5.1 °C 1027.0 hPa Calm     66 % 0.0 mm 0.0 W/m2 CLR
22:55 0.0 °C -5.4 °C 1027.0 hPa Calm     67 % 0.0 mm 0.0 W/m2 CLR
23:00 0.0 °C -5.2 °C 1027.0 hPa Calm     68 % 0.0 mm 0.0 W/m2 CLR
23:15 -0.6 °C -5.3 °C 1027.0 hPa Calm     70 % 0.0 mm 0.0 W/m2 CLR
23:20 -0.6 °C -5.3 °C 1027.0 hPa Calm     70 % 0.0 mm 0.0 W/m2 CLR
23:25 -1.1 °C -5.9 °C 1027.0 hPa Calm     70 % 0.0 mm 0.0 W/m2 CLR
23:30 -0.6 °C -5.3 °C 1027.0 hPa Calm     70 % 0.0 mm 0.0 W/m2 CLR
23:35 -0.6 °C -5.2 °C 1027.0 hPa Calm     71 % 0.0 mm 0.0 W/m2 CLR
23:40 -0.6 °C -5.2 °C 1027.3 hPa Calm     71 % 0.0 mm 0.0 W/m2 CLR
23:45 -0.6 °C -5.3 °C 1027.0 hPa Calm     70 % 0.0 mm 0.0 W/m2 CLR
23:55 -0.6 °C -5.6 °C 1027.0 hPa Calm     69 % 0.0 mm 0.0 W/m2 CLR
Lo Temps de Massalio
Compliments of Weather Underground - 1 mb